Time;durP1;ratioP1;P1;durP2;ratioP2;P2;SDS_P1;SDS_P2;PMS_P1;PMS_P2;Temp;Humidity;BMP_temperature;BMP_pressure;BME280_temperature;BME280_humidity;BME280_pressure;Samples;Min_cycle;Max_cycle;Signal;HPM_P1;HPM_P2
2023/03/03 00:02:06;;;;;;;0.00;0.00;;;;;;;9.78;58.00;102453.16;7358327;19;20577;-60
2023/03/03 00:04:32;;;;;;;0.00;0.00;;;;;;;9.78;57.82;102454.06;7358916;19;20086;-60
2023/03/03 00:06:57;;;;;;;0.10;0.10;;;;;;;9.76;57.92;102449.66;7358770;19;20017;-60
2023/03/03 00:09:22;;;;;;;0.10;0.10;;;;;;;9.77;57.67;102451.41;7342205;19;20017;-60
2023/03/03 00:11:54;;;;;;;0.00;0.00;;;;;;;9.82;57.41;102454.94;7354680;19;20002;-60
2023/03/03 00:14:28;;;;;;;0.10;0.10;;;;;;;9.81;57.77;102453.19;7356168;19;20002;-60
2023/03/03 00:16:56;;;;;;;0.03;0.03;;;;;;;9.76;57.63;102449.66;7344819;19;20514;-60
2023/03/03 00:19:22;;;;;;;0.00;0.00;;;;;;;9.77;57.31;102452.28;7357361;19;20023;-59
2023/03/03 00:21:50;;;;;;;0.00;0.00;;;;;;;9.77;57.08;102446.19;7357121;19;20014;-61
2023/03/03 00:24:37;;;;;;;0.00;0.00;;;;;;;9.77;56.61;102448.81;7355756;19;20014;-60
2023/03/03 00:27:22;;;;;;;0.00;0.00;;;;;;;9.72;55.71;102440.94;7354531;19;20706;-60
2023/03/03 00:29:51;;;;;;;0.00;0.00;;;;;;;9.70;55.55;102449.63;7355558;19;20006;-60
2023/03/03 00:32:35;;;;;;;0.00;0.00;;;;;;;9.64;55.50;102445.22;7355741;19;20038;-60
2023/03/03 00:35:22;;;;;;;0.00;0.00;;;;;;;9.48;55.93;102423.34;7347492;19;20046;-60
2023/03/03 00:37:50;;;;;;;0.00;0.00;;;;;;;9.55;55.77;102446.00;7356638;19;20011;-60
2023/03/03 00:40:32;;;;;;;0.00;0.00;;;;;;;9.44;55.46;102426.78;7355969;19;20014;-60
2023/03/03 00:42:59;;;;;;;0.00;0.00;;;;;;;9.39;55.70;102423.25;7353850;19;20066;-60
2023/03/03 00:45:25;;;;;;;0.05;0.05;;;;;;;9.48;55.77;102457.25;7352144;19;20022;-60
2023/03/03 00:47:51;;;;;;;0.00;0.00;;;;;;;9.38;56.18;102434.56;7354336;19;20626;-60
2023/03/03 00:50:32;;;;;;;0.05;0.05;;;;;;;9.42;56.26;102445.88;7356184;19;20105;-60
2023/03/03 00:53:00;;;;;;;0.08;0.08;;;;;;;9.43;55.94;102448.50;7354804;19;20011;-60
2023/03/03 00:55:26;;;;;;;0.03;0.03;;;;;;;9.42;56.07;102453.69;7356161;19;20010;-60
2023/03/03 00:57:51;;;;;;;0.10;0.10;;;;;;;9.41;56.50;102452.81;7354444;19;20006;-60
2023/03/03 01:00:17;;;;;;;0.00;0.00;;;;;;;9.40;56.70;102455.41;7358386;19;20023;-60
2023/03/03 01:02:45;;;;;;;0.10;0.10;;;;;;;9.39;56.38;102454.53;7358306;19;20021;-60
2023/03/03 01:05:12;;;;;;;0.00;0.00;;;;;;;9.39;56.71;102456.28;7357125;19;20030;-60
2023/03/03 01:07:38;;;;;;;0.00;0.00;;;;;;;9.34;56.59;102449.28;7361149;19;20030;-60
2023/03/03 01:10:04;;;;;;;0.08;0.08;;;;;;;9.33;56.49;102450.16;7353153;19;20010;-60
2023/03/03 01:12:29;;;;;;;0.00;0.00;;;;;;;9.32;56.57;102452.72;7356140;19;20354;-60
2023/03/03 01:14:54;;;;;;;0.03;0.03;;;;;;;9.34;56.64;102451.00;7356858;19;20500;-60
2023/03/03 01:17:20;;;;;;;0.10;0.10;;;;;;;9.33;56.72;102455.34;7356345;19;20650;-60
2023/03/03 01:19:45;;;;;;;0.00;0.00;;;;;;;9.34;56.82;102454.50;7352090;19;20013;-60
2023/03/03 01:22:11;;;;;;;0.10;0.10;;;;;;;9.27;56.83;102439.63;7357061;19;20023;-60
2023/03/03 01:24:36;;;;;;;0.00;0.00;;;;;;;9.35;56.57;102460.56;7358299;19;20124;-60
2023/03/03 01:27:02;;;;;;;0.00;0.00;;;;;;;9.21;56.85;102443.91;7333722;19;20077;-60
2023/03/03 01:29:27;;;;;;;0.00;0.00;;;;;;;9.14;56.69;102429.06;7355177;19;20343;-59
2023/03/03 01:31:53;;;;;;;0.00;0.00;;;;;;;9.24;56.52;102450.03;7351381;19;20006;-60
2023/03/03 01:34:18;;;;;;;0.00;0.00;;;;;;;9.32;56.69;102458.78;7355565;19;20014;-59
2023/03/03 01:36:43;;;;;;;0.05;0.05;;;;;;;9.32;57.17;102458.78;7355619;19;20034;-60
2023/03/03 01:39:12;;;;;;;0.00;0.00;;;;;;;9.32;56.85;102457.94;7356068;19;20401;-60
2023/03/03 01:41:37;;;;;;;0.00;0.00;;;;;;;9.30;57.17;102455.31;7354488;19;20011;-59
2023/03/03 01:44:03;;;;;;;0.00;0.00;;;;;;;9.30;56.88;102459.66;7357094;19;20014;-60
2023/03/03 01:46:57;;;;;;;0.10;0.10;;;;;;;9.31;56.52;102461.41;7356041;19;20014;-60
2023/03/03 01:49:30;;;;;;;0.00;0.00;;;;;;;9.30;56.87;102459.66;7257659;19;2004431;-60
2023/03/03 01:52:01;;;;;;;0.00;0.00;;;;;;;9.24;57.05;102454.38;7351735;19;20006;-60
2023/03/03 01:54:52;;;;;;;0.00;0.00;;;;;;;9.26;56.56;102457.88;7355337;19;21580;-60
2023/03/03 01:57:27;;;;;;;0.00;0.00;;;;;;;9.25;57.08;102466.56;7255362;19;2004185;-60
2023/03/03 01:59:56;;;;;;;0.00;0.00;;;;;;;9.24;57.16;102470.03;7354053;19;20006;-60
2023/03/03 02:02:22;;;;;;;0.00;0.00;;;;;;;9.19;57.28;102461.28;7359185;19;20020;-60
2023/03/03 02:04:49;;;;;;;0.00;0.00;;;;;;;9.21;56.92;102462.16;7352771;19;20086;-60
2023/03/03 02:07:16;;;;;;;0.00;0.00;;;;;;;8.99;57.13;102427.16;7357933;19;20462;-60
2023/03/03 02:10:09;;;;;;;0.00;0.00;;;;;;;9.21;56.84;102460.41;7356436;19;20014;-60
2023/03/03 02:12:42;;;;;;;0.00;0.00;;;;;;;9.20;57.57;102461.28;7256400;19;2004328;-60
2023/03/03 02:15:26;;;;;;;0.00;0.00;;;;;;;9.19;57.14;102462.16;7353958;19;20025;-60
2023/03/03 02:17:55;;;;;;;0.00;0.00;;;;;;;9.18;57.30;102465.63;7359067;19;20015;-60
2023/03/03 02:20:39;;;;;;;0.00;0.00;;;;;;;9.17;57.39;102466.44;7354300;19;20006;-60
2023/03/03 02:23:23;;;;;;;0.00;0.00;;;;;;;9.18;57.47;102464.75;7350552;19;20512;-61
2023/03/03 02:25:56;;;;;;;0.00;0.00;;;;;;;9.12;57.59;102456.84;7356152;19;20046;-60
2023/03/03 02:28:25;;;;;;;0.00;0.00;;;;;;;9.18;57.46;102464.75;7351869;19;20669;-60
2023/03/03 02:30:54;;;;;;;0.00;0.00;;;;;;;9.17;57.92;102462.97;7356321;19;20011;-60
2023/03/03 02:33:19;;;;;;;0.00;0.00;;;;;;;9.16;57.57;102466.44;7355537;19;20010;-60
2023/03/03 02:35:45;;;;;;;0.00;0.00;;;;;;;9.09;57.90;102448.13;7356046;19;20045;-60
2023/03/03 02:38:32;;;;;;;0.00;0.00;;;;;;;9.18;57.58;102462.13;7355437;19;20101;-59
2023/03/03 02:41:09;;;;;;;0.00;0.00;;;;;;;9.17;57.59;102461.22;7350427;19;20010;-60
2023/03/03 02:43:41;;;;;;;;;;;;;;;9.20;56.83;102468.22;7355477;19;20475;-60
2023/03/03 02:46:07;;;;;;;0.00;0.00;;;;;;;9.15;57.78;102467.31;7350337;19;19933;-60
2023/03/03 02:48:32;;;;;;;0.00;0.00;;;;;;;9.14;58.02;102473.38;7357266;19;22126;-60
2023/03/03 02:50:58;;;;;;;0.10;0.10;;;;;;;8.97;58.23;102445.41;7356265;19;20014;-60
2023/03/03 02:53:23;;;;;;;0.00;0.00;;;;;;;9.13;58.10;102472.50;7355808;19;20026;-60
2023/03/03 02:55:48;;;;;;;0.00;0.00;;;;;;;9.13;57.83;102471.63;7353638;19;20007;-60
2023/03/03 02:58:14;;;;;;;0.00;0.00;;;;;;;9.13;57.88;102471.63;7339646;19;20010;-60
2023/03/03 03:00:39;;;;;;;0.00;0.00;;;;;;;9.05;58.25;102459.38;7349110;19;20003;-60
2023/03/03 03:03:05;;;;;;;0.00;0.00;;;;;;;9.11;58.10;102466.38;7354823;19;20010;-60
2023/03/03 03:05:30;;;;;;;0.10;0.10;;;;;;;9.13;58.03;102466.44;7351074;19;20006;-59
2023/03/03 03:07:55;;;;;;;0.00;0.00;;;;;;;9.10;58.24;102467.25;7353337;19;20732;-60
2023/03/03 03:10:21;;;;;;;0.00;0.00;;;;;;;8.95;58.01;102428.84;7351096;19;20034;-59
2023/03/03 03:12:46;;;;;;;0.00;0.00;;;;;;;9.13;58.30;102471.63;7353049;19;20010;-60
2023/03/03 03:15:12;;;;;;;0.00;0.00;;;;;;;9.12;58.17;102469.88;7353146;19;20003;-59
2023/03/03 03:17:38;;;;;;;0.00;0.00;;;;;;;9.09;58.53;102461.16;7354999;19;20014;-60
2023/03/03 03:20:04;;;;;;;0.00;0.00;;;;;;;9.05;58.40;102448.06;7347007;19;20061;-60
2023/03/03 03:22:29;;;;;;;0.00;0.00;;;;;;;8.77;57.93;102400.00;7353969;19;20364;-60
2023/03/03 03:24:55;;;;;;;0.08;0.08;;;;;;;9.13;58.08;102463.81;7353414;19;20763;-59
2023/03/03 03:27:22;;;;;;;0.00;0.00;;;;;;;9.10;58.01;102452.47;7350537;19;20014;-60
2023/03/03 03:29:47;;;;;;;0.00;0.00;;;;;;;9.13;58.03;102456.00;7348722;19;20035;-60
2023/03/03 03:32:13;;;;;;;0.00;0.00;;;;;;;9.12;58.15;102457.69;7353624;19;20600;-60
2023/03/03 03:34:38;;;;;;;0.00;0.00;;;;;;;9.10;58.37;102456.81;7354837;19;20701;-60
2023/03/03 03:37:03;;;;;;;0.00;0.00;;;;;;;9.10;58.23;102462.03;7360466;19;20040;-60
2023/03/03 03:39:29;;;;;;;0.03;0.03;;;;;;;9.05;58.14;102454.16;7359177;19;20039;-59
2023/03/03 03:41:54;;;;;;;0.00;0.00;;;;;;;8.98;57.96;102447.16;7360018;19;20010;-60
2023/03/03 03:44:20;;;;;;;0.00;0.00;;;;;;;8.96;57.87;102448.84;7354398;19;20035;-60
2023/03/03 03:46:45;;;;;;;0.00;0.00;;;;;;;9.04;58.20;102456.75;7359323;19;20025;-61
2023/03/03 03:49:11;;;;;;;0.00;0.00;;;;;;;8.98;58.16;102462.78;7359982;19;20015;-60
2023/03/03 03:51:40;;;;;;;0.00;0.00;;;;;;;8.98;58.30;102452.34;7358469;19;20491;-60
2023/03/03 03:54:05;;;;;;;0.00;0.00;;;;;;;8.83;58.19;102420.91;7359447;19;20011;-60
2023/03/03 03:56:31;;;;;;;0.00;0.00;;;;;;;8.98;58.15;102444.53;7359585;19;20492;-60
2023/03/03 03:58:56;;;;;;;0.00;0.00;;;;;;;9.00;58.11;102445.41;7358441;19;20818;-60
2023/03/03 04:01:21;;;;;;;0.00;0.00;;;;;;;8.95;58.41;102438.41;7356416;19;20038;-59
2023/03/03 04:03:47;;;;;;;0.00;0.00;;;;;;;8.96;58.26;102437.53;7353825;19;20012;-60
2023/03/03 04:06:13;;;;;;;0.00;0.00;;;;;;;8.91;58.38;102431.41;7337681;19;20106;-60
2023/03/03 04:08:39;;;;;;;0.00;0.00;;;;;;;8.93;58.60;102432.31;7361141;19;20803;-60
2023/03/03 04:11:04;;;;;;;0.00;0.00;;;;;;;8.93;58.40;102447.94;7357353;19;21081;-60
2023/03/03 04:13:33;;;;;;;0.00;0.00;;;;;;;8.95;58.86;102448.81;7359722;19;21348;-60
2023/03/03 04:15:59;;;;;;;0.00;0.00;;;;;;;8.88;58.76;102440.06;7354919;19;20021;-60
2023/03/03 04:18:25;;;;;;;0.00;0.00;;;;;;;8.97;58.77;102452.31;7360718;19;20019;-60
2023/03/03 04:20:51;;;;;;;0.00;0.00;;;;;;;8.96;58.94;102455.78;7336488;19;20006;-60
2023/03/03 04:23:18;;;;;;;0.00;0.00;;;;;;;8.94;58.72;102460.97;7359562;19;20107;-60
2023/03/03 04:25:46;;;;;;;0.00;0.00;;;;;;;8.86;59.02;102446.97;7355199;19;20026;-60
2023/03/03 04:28:12;;;;;;;0.10;0.10;;;;;;;8.93;58.81;102459.25;7358024;19;20550;-59
2023/03/03 04:30:37;;;;;;;0.00;0.00;;;;;;;8.96;59.33;102464.47;7357594;19;20014;-60
2023/03/03 04:33:03;;;;;;;0.00;0.00;;;;;;;8.90;59.15;102459.19;7358096;19;20010;-60
2023/03/03 04:35:28;;;;;;;0.00;0.00;;;;;;;8.90;58.93;102464.41;7358489;19;20478;-60
2023/03/03 04:37:54;;;;;;;0.00;0.00;;;;;;;8.97;59.17;102466.25;7353616;19;20018;-59
2023/03/03 04:40:19;;;;;;;0.00;0.00;;;;;;;8.96;58.93;102464.47;7359617;19;20099;-60
2023/03/03 04:42:45;;;;;;;0.00;0.00;;;;;;;8.97;59.12;102470.56;7357350;19;20018;-60
2023/03/03 04:45:11;;;;;;;0.10;0.10;;;;;;;8.97;58.82;102465.34;7359271;19;20007;-60
2023/03/03 04:47:37;;;;;;;0.10;0.10;;;;;;;8.90;58.85;102464.41;7352855;19;20108;-60
2023/03/03 04:50:02;;;;;;;0.00;0.00;;;;;;;8.95;58.82;102467.94;7359904;19;20030;-60
2023/03/03 04:52:28;;;;;;;0.05;0.05;;;;;;;8.73;59.00;102429.47;7353439;19;20018;-59
2023/03/03 04:54:53;;;;;;;0.08;0.08;;;;;;;8.95;59.13;102473.16;7358423;19;20010;-60
2023/03/03 04:57:19;;;;;;;0.00;0.00;;;;;;;8.80;59.07;102446.91;7358367;19;20042;-60
2023/03/03 04:59:44;;;;;;;0.00;0.00;;;;;;;8.79;58.94;102439.94;7357508;19;20015;-60
2023/03/03 05:02:11;;;;;;;0.00;0.00;;;;;;;8.92;58.96;102467.91;7357235;19;20380;-59
2023/03/03 05:04:37;;;;;;;0.00;0.00;;;;;;;8.95;59.21;102465.34;7357384;19;20033;-60
2023/03/03 05:07:03;;;;;;;0.10;0.10;;;;;;;8.92;59.38;102469.63;7358940;19;20015;-60
2023/03/03 05:09:29;;;;;;;0.00;0.00;;;;;;;8.94;59.37;102471.41;7358823;19;20021;-60
2023/03/03 05:11:54;;;;;;;0.10;0.10;;;;;;;8.94;59.28;102471.41;7355584;19;20010;-60
2023/03/03 05:14:20;;;;;;;0.10;0.10;;;;;;;8.80;59.42;102446.91;7355653;19;21709;-60
2023/03/03 05:16:45;;;;;;;0.00;0.00;;;;;;;8.50;59.05;102393.56;7363371;19;20031;-59
2023/03/03 05:19:11;;;;;;;0.00;0.00;;;;;;;8.94;59.48;102465.31;7356783;19;20021;-59
2023/03/03 05:21:39;;;;;;;0.00;0.00;;;;;;;8.93;59.53;102467.06;7353563;19;20015;-60
2023/03/03 05:24:04;;;;;;;0.00;0.00;;;;;;;8.79;59.59;102445.16;7358244;19;20018;-60
2023/03/03 05:26:30;;;;;;;0.10;0.10;;;;;;;8.93;59.38;102469.66;7357533;19;20023;-60
2023/03/03 05:28:55;;;;;;;0.03;0.03;;;;;;;8.93;59.66;102468.78;7358684;19;20003;-60
2023/03/03 05:31:22;;;;;;;0.10;0.10;;;;;;;8.93;58.97;102463.59;7356944;19;20007;-60
2023/03/03 05:33:47;;;;;;;0.00;0.00;;;;;;;8.91;59.43;102468.75;7359789;19;20138;-60
2023/03/03 05:36:13;;;;;;;0.00;0.00;;;;;;;8.91;59.57;102465.28;7355754;19;20090;-60
2023/03/03 05:38:38;;;;;;;0.00;0.00;;;;;;;7.99;59.27;102323.44;7357372;19;20018;-60
2023/03/03 05:41:03;;;;;;;0.00;0.00;;;;;;;8.84;59.26;102453.91;7355242;19;20017;-60
2023/03/03 05:43:29;;;;;;;0.00;0.00;;;;;;;8.89;59.16;102465.25;7357692;19;20014;-60
2023/03/03 05:45:56;;;;;;;0.00;0.00;;;;;;;8.89;59.62;102473.06;7357208;19;20043;-60
2023/03/03 05:48:21;;;;;;;0.03;0.03;;;;;;;8.63;59.22;102427.59;7352442;19;20019;-60
2023/03/03 05:50:46;;;;;;;0.00;0.00;;;;;;;8.78;59.49;102453.84;7355837;19;20014;-60
2023/03/03 05:53:12;;;;;;;0.00;0.00;;;;;;;8.88;59.43;102463.53;7356039;19;20781;-60
2023/03/03 05:55:37;;;;;;;0.00;0.00;;;;;;;8.88;59.35;102463.53;7355937;19;20014;-60
2023/03/03 05:58:03;;;;;;;0.00;0.00;;;;;;;8.78;59.37;102448.63;7353479;19;20015;-60
2023/03/03 06:00:28;;;;;;;0.00;0.00;;;;;;;8.87;59.37;102464.38;7357069;19;20722;-60
2023/03/03 06:02:53;;;;;;;0.00;0.00;;;;;;;8.76;59.90;102447.72;7355745;19;20031;-60
2023/03/03 06:05:19;;;;;;;0.05;0.05;;;;;;;8.84;59.54;102464.34;7356796;19;20106;-59
2023/03/03 06:07:44;;;;;;;0.00;0.00;;;;;;;8.76;59.96;102445.13;7354571;19;20010;-60
2023/03/03 06:10:10;;;;;;;0.00;0.00;;;;;;;8.86;60.09;102462.59;7356856;19;20082;-59
2023/03/03 06:12:37;;;;;;;0.10;0.10;;;;;;;8.81;60.33;102454.72;7355066;19;21670;-60
2023/03/03 06:15:04;;;;;;;0.03;0.03;;;;;;;8.72;59.87;102432.94;7357399;19;20014;-60
2023/03/03 06:17:29;;;;;;;0.00;0.00;;;;;;;8.80;59.53;102446.91;7353660;19;20020;-60
2023/03/03 06:19:54;;;;;;;0.00;0.00;;;;;;;8.72;59.77;102432.94;7356045;19;20018;-59
2023/03/03 06:22:20;;;;;;;0.00;0.00;;;;;;;8.84;59.78;102452.19;7352720;19;20006;-60
2023/03/03 06:24:45;;;;;;;0.00;0.00;;;;;;;8.82;59.60;102450.44;7354121;19;20018;-60
2023/03/03 06:27:11;;;;;;;0.00;0.00;;;;;;;8.75;59.58;102439.03;7357921;19;20472;-59
2023/03/03 06:29:36;;;;;;;0.00;0.00;;;;;;;8.60;59.79;102418.00;7356287;19;20022;-59
2023/03/03 06:32:01;;;;;;;0.00;0.00;;;;;;;8.87;59.70;102464.38;7355406;19;20026;-60
2023/03/03 06:34:27;;;;;;;0.00;0.00;;;;;;;8.85;59.89;102455.66;7353745;19;20018;-60
2023/03/03 06:36:52;;;;;;;0.00;0.00;;;;;;;8.82;59.74;102456.50;7358645;19;20822;-60
2023/03/03 06:39:18;;;;;;;0.00;0.00;;;;;;;8.70;59.83;102440.69;7351629;19;20019;-59
2023/03/03 06:41:43;;;;;;;0.00;0.00;;;;;;;8.82;59.88;102466.06;7352916;19;20038;-60
2023/03/03 06:44:10;;;;;;;0.00;0.00;;;;;;;8.86;60.08;102479.97;7353163;19;20114;-58
2023/03/03 06:46:36;;;;;;;0.00;0.00;;;;;;;8.86;59.73;102483.44;7357336;19;20019;-60
2023/03/03 06:49:02;;;;;;;0.10;0.10;;;;;;;8.86;60.25;102478.22;7354495;19;20527;-60
2023/03/03 06:51:33;;;;;;;0.00;0.00;;;;;;;8.87;59.84;102474.81;7354788;19;20014;-61
2023/03/03 06:54:05;;;;;;;0.00;0.00;;;;;;;8.74;59.63;102454.66;7355141;19;20018;-60
2023/03/03 06:56:34;;;;;;;0.05;0.05;;;;;;;8.83;59.87;102473.00;7354983;19;20007;-60
2023/03/03 06:59:01;;;;;;;0.00;0.00;;;;;;;8.85;59.63;102476.50;7340853;19;20010;-60
2023/03/03 07:01:29;;;;;;;0.00;0.00;;;;;;;8.84;59.99;102474.75;7352958;19;20435;-60
2023/03/03 07:03:55;;;;;;;0.00;0.00;;;;;;;8.79;59.92;102477.28;7351081;19;20073;-60
2023/03/03 07:06:26;;;;;;;0.05;0.05;;;;;;;8.84;59.40;102485.16;7350907;19;20086;-60
2023/03/03 07:08:53;;;;;;;0.00;0.00;;;;;;;8.84;60.14;102495.59;7352545;19;20007;-60
2023/03/03 07:11:21;;;;;;;0.00;0.00;;;;;;;8.73;59.72;102476.34;7357288;19;20366;-58
2023/03/03 07:13:48;;;;;;;;;;;;;;;8.88;58.90;102502.59;7361736;19;20097;-60
2023/03/03 07:16:16;;;;;;;0.00;0.00;;;;;;;8.81;59.75;102485.13;7356423;19;20378;-60
2023/03/03 07:18:51;;;;;;;0.00;0.00;;;;;;;8.85;59.80;102497.34;7361347;19;20704;-59
2023/03/03 07:21:29;;;;;;;0.00;0.00;;;;;;;8.83;59.97;102496.44;7355975;19;20015;-60
2023/03/03 07:23:54;;;;;;;;;;;;;;;8.85;59.05;102499.94;7356574;19;20014;-60
2023/03/03 07:26:24;;;;;;;0.00;0.00;;;;;;;8.77;60.37;102498.97;7355922;19;19933;-60
2023/03/03 07:28:57;;;;;;;0.00;0.00;;;;;;;8.70;60.46;102495.41;7356226;19;20021;-60
2023/03/03 07:31:30;;;;;;;0.00;0.00;;;;;;;8.80;60.45;102504.22;7357024;19;20056;-60
2023/03/03 07:33:56;;;;;;;0.00;0.00;;;;;;;8.75;60.46;102503.28;7351090;19;20606;-60
2023/03/03 07:36:29;;;;;;;0.10;0.10;;;;;;;8.79;60.30;102512.88;7356771;19;20089;-59
2023/03/03 07:39:27;;;;;;;0.00;0.00;;;;;;;8.81;59.76;102522.47;7359268;19;20094;-60
2023/03/03 07:42:12;;;;;;;0.00;0.00;;;;;;;8.79;60.70;102532.00;7254996;19;2004278;-60
2023/03/03 07:44:38;;;;;;;0.08;0.08;;;;;;;8.80;60.38;102532.88;7353051;19;20526;-60
2023/03/03 07:47:34;;;;;;;0.00;0.00;;;;;;;8.82;60.12;102529.44;7356179;19;20021;-60
2023/03/03 07:50:12;;;;;;;0.00;0.00;;;;;;;8.77;60.57;102530.25;7254065;19;2004389;-60
2023/03/03 07:52:41;;;;;;;0.00;0.00;;;;;;;8.82;61.15;102544.19;7339299;19;20050;-60
2023/03/03 07:55:25;;;;;;;0.00;0.00;;;;;;;8.86;60.44;102534.69;7346495;19;20283;-56
2023/03/03 07:57:53;;;;;;;0.00;0.00;;;;;;;8.81;61.02;102543.31;7349110;19;20033;-56
2023/03/03 08:00:18;;;;;;;0.00;0.00;;;;;;;8.82;61.04;102546.81;7352022;19;20018;-55
2023/03/03 08:02:50;;;;;;;0.00;0.00;;;;;;;8.84;60.98;102545.97;7343809;19;20017;-56
2023/03/03 08:05:28;;;;;;;0.00;0.00;;;;;;;8.87;60.73;102546.84;7338543;19;20750;-54
2023/03/03 08:08:20;;;;;;;;;;;;;;;8.88;59.82;102549.50;7353988;19;20007;-55
2023/03/03 08:10:53;;;;;;;0.00;0.00;;;;;;;8.88;60.50;102554.69;7249457;19;2004209;-56
2023/03/03 08:13:19;;;;;;;0.10;0.10;;;;;;;8.85;61.15;102549.44;7352330;19;20014;-55
2023/03/03 08:15:48;;;;;;;0.00;0.00;;;;;;;8.83;60.79;102551.16;7350703;19;20019;-56
2023/03/03 08:18:27;;;;;;;0.00;0.00;;;;;;;8.70;61.00;102528.38;7350226;19;20026;-55
2023/03/03 08:21:23;;;;;;;0.00;0.00;;;;;;;8.85;60.18;102554.66;7351026;19;20011;-53
2023/03/03 08:23:50;;;;;;;0.00;0.00;;;;;;;8.81;61.16;102558.06;7252081;19;2004130;-56
2023/03/03 08:26:17;;;;;;;0.00;0.00;;;;;;;8.82;61.04;102565.03;7356754;19;20489;-53
2023/03/03 08:28:42;;;;;;;0.00;0.00;;;;;;;8.82;60.72;102565.03;7353596;19;20030;-58
2023/03/03 08:31:08;;;;;;;0.00;0.00;;;;;;;8.82;60.95;102559.84;7353082;19;20014;-56
2023/03/03 08:33:33;;;;;;;0.00;0.00;;;;;;;8.82;61.06;102560.72;7350500;19;20030;-55
2023/03/03 08:35:58;;;;;;;0.00;0.00;;;;;;;8.79;61.00;102560.66;7358269;19;20006;-55
2023/03/03 08:38:24;;;;;;;0.00;0.00;;;;;;;8.82;61.09;102557.22;7361503;19;22353;-55
2023/03/03 08:40:49;;;;;;;0.00;0.00;;;;;;;8.85;60.77;102565.06;7357371;19;20494;-56
2023/03/03 08:43:20;;;;;;;0.00;0.00;;;;;;;8.63;61.03;102527.44;7352612;19;20070;-55
2023/03/03 08:45:55;;;;;;;0.00;0.00;;;;;;;8.89;60.65;102572.06;7354899;19;20010;-56
2023/03/03 08:48:20;;;;;;;0.00;0.00;;;;;;;8.48;60.85;102512.44;7353388;19;20022;-55
2023/03/03 08:50:46;;;;;;;0.00;0.00;;;;;;;8.88;60.88;102572.94;7350619;19;20042;-56
2023/03/03 08:53:13;;;;;;;0.00;0.00;;;;;;;8.82;60.81;102559.84;7350663;19;20063;-56
2023/03/03 08:55:39;;;;;;;0.00;0.00;;;;;;;8.91;60.88;102580.78;7351375;19;20026;-57
2023/03/03 08:58:05;;;;;;;0.00;0.00;;;;;;;8.93;60.50;102583.44;7337855;19;20231;-55
2023/03/03 09:00:31;;;;;;;0.00;0.00;;;;;;;8.94;60.85;102575.63;7348506;19;20051;-56
2023/03/03 09:02:57;;;;;;;0.00;0.00;;;;;;;8.95;61.00;102574.75;7347687;19;20090;-56
2023/03/03 09:05:23;;;;;;;0.00;0.00;;;;;;;8.97;60.93;102582.59;7347984;19;20612;-56
2023/03/03 09:07:50;;;;;;;0.00;0.00;;;;;;;8.95;61.17;102577.38;7351877;19;20721;-55
2023/03/03 09:10:26;;;;;;;0.00;0.00;;;;;;;9.01;60.47;102582.66;7345667;19;21228;-56
2023/03/03 09:12:52;;;;;;;0.00;0.00;;;;;;;9.02;60.65;102578.31;7352641;19;20465;-55
2023/03/03 09:15:27;;;;;;;0.00;0.00;;;;;;;9.06;60.75;102585.34;7353941;19;20014;-55
2023/03/03 09:17:56;;;;;;;0.00;0.00;;;;;;;8.74;61.13;102535.41;7351707;19;20846;-55
2023/03/03 09:20:51;;;;;;;0.00;0.00;;;;;;;9.14;60.44;102585.44;7352049;19;20006;-55
2023/03/03 09:23:31;;;;;;;0.00;0.00;;;;;;;9.16;60.89;102591.56;7248960;19;2006273;-56
2023/03/03 09:26:05;;;;;;;0.00;0.00;;;;;;;9.14;60.58;102590.66;7351156;19;20371;-56
2023/03/03 09:28:31;;;;;;;0.00;0.00;;;;;;;9.23;60.96;102599.50;7355111;19;20033;-56
2023/03/03 09:31:00;;;;;;;0.00;0.00;;;;;;;9.28;60.80;102607.38;7352240;19;20757;-56
2023/03/03 09:33:46;;;;;;;0.00;0.00;;;;;;;9.26;60.39;102591.69;7353899;19;20002;-56
2023/03/03 09:36:26;;;;;;;0.00;0.00;;;;;;;9.41;60.25;102601.44;7348383;19;20009;-55
2023/03/03 09:38:53;;;;;;;0.00;0.00;;;;;;;9.45;60.34;102608.44;7351564;19;20010;-55
2023/03/03 09:41:22;;;;;;;0.00;0.00;;;;;;;9.54;60.41;102610.31;7349569;19;20018;-56
2023/03/03 09:44:06;;;;;;;0.10;0.10;;;;;;;9.60;60.29;102606.03;7352732;19;20948;-57
2023/03/03 09:46:56;;;;;;;0.00;0.00;;;;;;;9.67;60.07;102616.53;7351443;19;21155;-56
2023/03/03 09:49:31;;;;;;;0.00;0.00;;;;;;;9.70;60.01;102611.34;7350865;19;20014;-56
2023/03/03 09:52:02;;;;;;;0.10;0.10;;;;;;;9.77;59.77;102618.38;7354198;19;20021;-56
2023/03/03 09:54:39;;;;;;;0.10;0.10;;;;;;;9.84;59.60;102620.22;7351177;19;20017;-56
2023/03/03 09:57:27;;;;;;;0.00;0.00;;;;;;;9.91;59.87;102624.63;7357736;19;19999;-54
2023/03/03 10:00:32;;;;;;;0.10;0.10;;;;;;;9.97;59.44;102627.31;7353548;19;20106;-56
2023/03/03 10:03:27;;;;;;;0.08;0.08;;;;;;;10.04;59.58;102623.06;7251633;19;2004288;-57
2023/03/03 10:06:10;;;;;;;0.00;0.00;;;;;;;10.08;59.52;102625.69;7353515;19;20017;-55
2023/03/03 10:08:47;;;;;;;0.00;0.00;;;;;;;10.11;59.09;102625.72;7356034;19;20030;-56
2023/03/03 10:11:27;;;;;;;0.00;0.00;;;;;;;10.13;59.04;102628.34;7353140;19;20017;-56
2023/03/03 10:14:01;;;;;;;0.00;0.00;;;;;;;10.16;59.18;102624.91;7355538;19;20480;-56
2023/03/03 10:16:45;;;;;;;0.10;0.10;;;;;;;10.19;58.88;102624.91;7351808;19;20010;-55
2023/03/03 10:19:40;;;;;;;0.00;0.00;;;;;;;10.26;58.90;102629.38;7347367;19;20849;-56
2023/03/03 10:22:16;;;;;;;0.00;0.00;;;;;;;10.23;58.94;102635.41;7252707;19;2004373;-56
2023/03/03 10:25:03;;;;;;;0.00;0.00;;;;;;;10.30;58.67;102633.78;7354378;19;20038;-57
2023/03/03 10:27:42;;;;;;;0.00;0.00;;;;;;;10.32;58.67;102642.50;7351474;19;20113;-53
2023/03/03 10:30:52;;;;;;;0.00;0.00;;;;;;;10.33;58.39;102646.84;7356074;19;20422;-56
2023/03/03 10:33:42;;;;;;;0.03;0.03;;;;;;;10.35;58.54;102645.13;7251918;19;2004496;-56
2023/03/03 10:36:17;;;;;;;0.00;0.00;;;;;;;10.31;58.58;102643.34;7348918;19;20021;-55
2023/03/03 10:39:09;;;;;;;0.00;0.00;;;;;;;10.35;58.57;102639.91;7353747;19;20608;-56
2023/03/03 10:41:52;;;;;;;0.00;0.00;;;;;;;10.38;58.35;102650.38;7254178;19;2004330;-57
2023/03/03 10:44:39;;;;;;;0.05;0.05;;;;;;;10.45;58.46;102652.19;7346645;19;20074;-55
2023/03/03 10:47:24;;;;;;;0.00;0.00;;;;;;;10.48;59.13;102646.97;7353718;19;20030;-56
2023/03/03 10:50:12;;;;;;;0.00;0.00;;;;;;;10.58;58.89;102653.16;7350577;19;21292;-56
2023/03/03 10:52:47;;;;;;;0.00;0.00;;;;;;;10.59;58.34;102654.91;7352483;19;20467;-56
2023/03/03 10:55:50;;;;;;;0.00;0.00;;;;;;;10.72;58.42;102661.13;7356082;19;20019;-56
2023/03/03 10:58:28;;;;;;;0.10;0.10;;;;;;;10.74;57.93;102656.78;7250294;19;2004406;-56
2023/03/03 11:00:53;;;;;;;0.00;0.00;;;;;;;10.70;58.15;102637.59;7352301;19;20014;-56
2023/03/03 11:03:30;;;;;;;0.08;0.08;;;;;;;10.89;57.92;102662.13;7355437;19;20046;-56
2023/03/03 11:06:19;;;;;;;0.10;0.10;;;;;;;10.93;58.15;102660.41;7355204;19;20011;-56
2023/03/03 11:09:03;;;;;;;0.00;0.00;;;;;;;11.00;57.59;102668.31;7349456;19;20018;-56
2023/03/03 11:12:05;;;;;;;0.00;0.00;;;;;;;11.05;58.04;102661.38;7354733;19;20015;-56
2023/03/03 11:14:46;;;;;;;0.10;0.10;;;;;;;11.04;57.82;102670.06;7245555;19;2004548;-56
2023/03/03 11:17:50;;;;;;;0.00;0.00;;;;;;;11.10;57.63;102667.53;7350890;19;20011;-56
2023/03/03 11:20:28;;;;;;;0.00;0.00;;;;;;;11.12;57.90;102668.41;7247397;19;2004695;-56
2023/03/03 11:23:30;;;;;;;0.00;0.00;;;;;;;11.14;57.57;102674.50;7351247;19;20424;-54
2023/03/03 11:26:02;;;;;;;0.00;0.00;;;;;;;10.87;57.71;102632.50;7250904;19;2004242;-57
2023/03/03 11:28:38;;;;;;;0.00;0.00;;;;;;;11.14;57.89;102671.88;7351338;19;20014;-56
2023/03/03 11:31:24;;;;;;;0.00;0.00;;;;;;;11.15;57.55;102673.66;7348332;19;21019;-55
2023/03/03 11:34:14;;;;;;;0.00;0.00;;;;;;;11.18;57.46;102678.03;7354635;19;20003;-58
2023/03/03 11:36:50;;;;;;;0.00;0.00;;;;;;;11.17;57.77;102677.16;7354834;19;20010;-56
2023/03/03 11:39:21;;;;;;;0.00;0.00;;;;;;;11.12;57.63;102668.41;7351034;19;20011;-55
2023/03/03 11:42:03;;;;;;;0.00;0.00;;;;;;;11.22;57.21;102678.91;7353887;19;20090;-56
2023/03/03 11:44:36;;;;;;;0.00;0.00;;;;;;;11.12;57.34;102663.16;7353955;19;20738;-56
2023/03/03 11:47:38;;;;;;;0.00;0.00;;;;;;;11.29;57.18;102685.94;7353059;19;20657;-54
2023/03/03 11:50:45;;;;;;;0.00;0.00;;;;;;;11.33;57.37;102687.69;7244037;19;2004234;-56
2023/03/03 11:53:16;;;;;;;;;;;;;;;11.38;57.46;102680.75;7247316;19;2004022;-56